Kodiak, AK

2:03 AM AKDT on August 30, 2014 (GMT -0800)
Seldovia | Change Station
CLOSE
Current Station
Airport
Location: Seldovia,
Elevation: 30 ft
Nearby Weather Stations

Elev 30 ft 59.44 °N, 151.70 °W | Updated 10 minutes ago

Clear
Clear
44 °F
Feels Like 44 °F
N
0
Wind Variable Wind from North

Today
High -- | Low -- °F
--% Chance of Precip.
Yesterday
High -- | Low -- °F
Precip. -- in
7:06 AM 9:12 PM
Waxing Crescent, 20% visible
Pressure 29.62 in
Visibility 10.0 miles
Clouds Clear
Dew Point 43 °F
Humidity 96%
Rainfall 0.00 in
Snow Depth Not available.
UV 0 out of 12
Pollen Not available.
Air Quality Not available.
Flu Activity Not available.
METAR PASO 300953Z AUTO 00000KT 10SM CLR 07/06 A2961 RMK AO2 SLP028 T00670061 TSNO

More Conditions Fewer Conditions

Pressure 29.62 in
Visibility 10.0 miles
Clouds Clear
Dew Point 43 °F
Humidity 96%
Rainfall 0.00 in
Snow Depth Not available.
UV 0 out of 12
Pollen Not available.
Air Quality Not available.
Flu Activity Not available.
METAR PASO 300953Z AUTO 00000KT 10SM CLR 07/06 A2961 RMK AO2 SLP028 T00670061 TSNO

More Conditions Fewer Conditions

10-Day Weather Forecast

Almanac

Astronomy

Aug. 30, 2014 Rise Set
Actual Time 7:06 AM AKDT 9:12 PM AKDT
Civil Twilight 6:24 AM AKDT 9:54 PM AKDT
Nautical Twilight 5:30 AM AKDT 10:48 PM AKDT
Astronomical Twilight 4:23 AM AKDT 11:53 PM AKDT
Moon 1:14 PM AKDT 10:40 PM AKDT
Length of Visible Light 15h 30m
Length of Day
14h 06m
Tomorrow will be 4m 53s shorter.
Waxing Crescent, 20% of the Moon is Illuminated
Today
Waxing Crescent
Sep 2
First Quarter
Sep 8
Full
Sep 15
Last Quarter
Sep 24
New

Today's Extremes

State Highs State Lows

Community

WunderPhotos

Upload Photos

1,748,475 photos uploaded!

Nearby

Snow Depth

Station Depth Elevation
Port Graham 0 in 300 ft
Nuka Glacier 26 in 1250 ft
Mcneil Canyon 1 in 1320 ft
MF Bradley River 2 in 2300 ft
Cooper Lake 14 in 1200 ft

Earthquake Activity

City Distance Mag. Time & Date
No recent earthquake activity has been reported nearby.
Minimum magnitude displayed is 2.5.

Coastal Water Temperatures

Place Temperature
No Stations Reporting

Nearby Weather Stations